Welches, OR (97067)

4:14 AM PDT on May 24, 2015 (GMT -0700)
Sandy River, Elev. 1411 | | Change Station
CLOSE
Current Station
Personal Weather Station
Location: Rhododendron, OR
Elevation: 1411 ft
Nearby Weather Stations

Elev 1411 ft 45.35 °N, 121.95 °W | Updated 3 minutes ago

Partly Cloudy
Partly Cloudy
50.6 °F
Feels Like 50.6 °F
N
0.0
Wind Variable Wind from SSW
Gusts 0.0 mph

Today
High -- | Low -- °F
--% Chance of Precip.
Yesterday
High -- | Low -- °F
Precip. -- in
5:28 AM 8:41 PM
Waxing Crescent, 38% visible
Pressure 30.16 in
Visibility 10.0 miles
Clouds Mostly Cloudy 2100 ft
Overcast 2800 ft
Dew Point 29 °F
Humidity 43%
Rainfall 0.02 in
Snow Depth Not available.
UV 0 out of 12
Pollen 4.80 out of 12
Air Quality Not available.
Flu Activity No Activity
METAR KTTD 241053Z AUTO VRB03KT 10SM BKN021 OVC028 13/08 A3016 RMK AO2 SLP211 T01280083

More Conditions Fewer Conditions

Pressure 30.16 in
Visibility 10.0 miles
Clouds Mostly Cloudy 2100 ft
Overcast 2800 ft
Dew Point 29 °F
Humidity 43%
Rainfall 0.02 in
Snow Depth Not available.
UV 0 out of 12
Pollen 4.80 out of 12
Air Quality Not available.
Flu Activity No Activity
METAR KTTD 241053Z AUTO VRB03KT 10SM BKN021 OVC028 13/08 A3016 RMK AO2 SLP211 T01280083

More Conditions Fewer Conditions

10-Day Weather Forecast

Almanac

Astronomy

May. 24, 2015 Rise Set
Actual Time
Civil Twilight
Nautical Twilight
Astronomical Twilight
Moon
Length of Visible Light
Length of Day
Tomorrow will be .
, % of the Moon is Illuminated

Today's Extremes

State Highs State Lows

Community

WunderPhotos

Upload Photos

1,823,709 photos uploaded!

WunderBlogs® & News

Nearby

Air Quality

  Air Quality AQ Index Pollutant
Not available.

Snow Depth

Station Depth Elevation

Earthquake Activity

City Distance Mag. Time & Date
Minimum magnitude displayed is 2.5.

Coastal Water Temperatures

Place Temperature

Stations

Nearby Weather Stations

Station Location Temp. Windchill Dew Point Humidity Wind Precip. Elev Updated Type